Coesse, Indiana
Current Conditions -  °F | °C
As of 9:06 AM on Thursday 23 Oct 2014 (Local Time) from KFWA Reporting Station
Moderate Fog Moderate Fog  
Wind Chill: 32°   Ceiling: 200
Heat Index: 32°   Visibility: 0.5mi
Dew Point: 31°   Wind: 0mph
Humidity: 96%   Direction: NA
Pressure: 30.27"   Gusts: NA
Location:  41.1479°N, 85.4772°W
Report Text: KFWA 231306Z 00000KT 1/2SM FG VV002 00/M01 A3027 RMK AO2 R05/1800FT T00001006 $
Loading
Personal Weather Stations






























Interactive Weather Map
Tropical Storm Tracking
New forecast layout! Learn more

10-Day Weather Forecast

Advertisements
Track Severe Weather on mobile